sensor_id;sensor_type;location;lat;lon;timestamp;P1;durP1;ratioP1;P2;durP2;ratioP2
58017;SDS011;43810;50.860;19.226;2023-05-29T00:00:48;5.32;;;3.10;;
58017;SDS011;43810;50.860;19.226;2023-05-29T00:03:25;5.03;;;2.67;;
58017;SDS011;43810;50.860;19.226;2023-05-29T00:05:51;5.68;;;3.15;;
58017;SDS011;43810;50.860;19.226;2023-05-29T00:08:17;5.78;;;3.53;;
58017;SDS011;43810;50.860;19.226;2023-05-29T00:10:47;7.18;;;3.30;;
58017;SDS011;43810;50.860;19.226;2023-05-29T00:13:15;4.88;;;2.50;;
58017;SDS011;43810;50.860;19.226;2023-05-29T00:15:41;5.50;;;3.00;;
58017;SDS011;43810;50.860;19.226;2023-05-29T00:18:06;5.57;;;2.97;;
58017;SDS011;43810;50.860;19.226;2023-05-29T00:20:33;5.03;;;2.65;;
58017;SDS011;43810;50.860;19.226;2023-05-29T00:25:36;5.88;;;2.85;;
58017;SDS011;43810;50.860;19.226;2023-05-29T00:28:11;9.93;;;3.20;;
58017;SDS011;43810;50.860;19.226;2023-05-29T00:30:38;5.97;;;3.72;;
58017;SDS011;43810;50.860;19.226;2023-05-29T00:33:04;7.45;;;3.15;;
58017;SDS011;43810;50.860;19.226;2023-05-29T00:35:31;5.45;;;3.65;;
58017;SDS011;43810;50.860;19.226;2023-05-29T00:37:57;7.20;;;3.78;;
58017;SDS011;43810;50.860;19.226;2023-05-29T00:40:25;5.45;;;3.08;;
58017;SDS011;43810;50.860;19.226;2023-05-29T00:42:51;7.72;;;3.80;;
58017;SDS011;43810;50.860;19.226;2023-05-29T00:45:17;7.10;;;3.47;;
58017;SDS011;43810;50.860;19.226;2023-05-29T00:47:43;6.57;;;3.53;;
58017;SDS011;43810;50.860;19.226;2023-05-29T00:50:10;6.72;;;3.20;;
58017;SDS011;43810;50.860;19.226;2023-05-29T00:52:39;5.38;;;2.80;;
58017;SDS011;43810;50.860;19.226;2023-05-29T00:55:09;6.70;;;3.45;;
58017;SDS011;43810;50.860;19.226;2023-05-29T00:57:35;6.53;;;3.40;;
58017;SDS011;43810;50.860;19.226;2023-05-29T01:00:04;7.82;;;4.03;;
58017;SDS011;43810;50.860;19.226;2023-05-29T01:02:34;6.53;;;3.55;;
58017;SDS011;43810;50.860;19.226;2023-05-29T01:05:01;5.80;;;3.17;;
58017;SDS011;43810;50.860;19.226;2023-05-29T01:07:27;5.45;;;3.60;;
58017;SDS011;43810;50.860;19.226;2023-05-29T01:09:53;6.13;;;3.28;;
58017;SDS011;43810;50.860;19.226;2023-05-29T01:12:23;6.07;;;3.00;;
58017;SDS011;43810;50.860;19.226;2023-05-29T01:14:54;5.55;;;3.13;;
58017;SDS011;43810;50.860;19.226;2023-05-29T01:17:24;4.70;;;3.07;;
58017;SDS011;43810;50.860;19.226;2023-05-29T01:22:58;7.13;;;3.17;;
58017;SDS011;43810;50.860;19.226;2023-05-29T01:25:58;5.07;;;3.05;;
58017;SDS011;43810;50.860;19.226;2023-05-29T01:28:45;6.70;;;2.80;;
58017;SDS011;43810;50.860;19.226;2023-05-29T01:31:14;5.07;;;3.35;;
58017;SDS011;43810;50.860;19.226;2023-05-29T01:33:55;5.20;;;3.42;;
58017;SDS011;43810;50.860;19.226;2023-05-29T01:36:22;7.05;;;3.22;;
58017;SDS011;43810;50.860;19.226;2023-05-29T01:38:49;4.43;;;2.58;;
58017;SDS011;43810;50.860;19.226;2023-05-29T01:41:17;6.85;;;3.03;;
58017;SDS011;43810;50.860;19.226;2023-05-29T01:43:44;4.88;;;2.95;;
58017;SDS011;43810;50.860;19.226;2023-05-29T01:46:12;5.85;;;2.92;;
58017;SDS011;43810;50.860;19.226;2023-05-29T01:48:40;5.50;;;2.83;;
58017;SDS011;43810;50.860;19.226;2023-05-29T01:51:07;5.30;;;2.72;;
58017;SDS011;43810;50.860;19.226;2023-05-29T01:53:33;5.72;;;2.75;;
58017;SDS011;43810;50.860;19.226;2023-05-29T01:55:59;5.18;;;2.95;;
58017;SDS011;43810;50.860;19.226;2023-05-29T01:58:26;5.07;;;2.92;;
58017;SDS011;43810;50.860;19.226;2023-05-29T02:00:53;4.55;;;3.13;;
58017;SDS011;43810;50.860;19.226;2023-05-29T02:03:20;6.40;;;2.90;;
58017;SDS011;43810;50.860;19.226;2023-05-29T02:05:46;4.63;;;3.40;;
58017;SDS011;43810;50.860;19.226;2023-05-29T02:08:12;6.10;;;2.97;;
58017;SDS011;43810;50.860;19.226;2023-05-29T02:10:38;4.32;;;2.63;;
58017;SDS011;43810;50.860;19.226;2023-05-29T02:13:04;5.32;;;3.30;;
58017;SDS011;43810;50.860;19.226;2023-05-29T02:15:30;7.20;;;3.47;;
58017;SDS011;43810;50.860;19.226;2023-05-29T02:17:56;4.95;;;3.35;;
58017;SDS011;43810;50.860;19.226;2023-05-29T02:20:23;5.72;;;3.47;;
58017;SDS011;43810;50.860;19.226;2023-05-29T02:22:49;4.93;;;3.17;;
58017;SDS011;43810;50.860;19.226;2023-05-29T02:25:16;7.95;;;3.78;;
58017;SDS011;43810;50.860;19.226;2023-05-29T02:27:41;8.02;;;3.42;;
58017;SDS011;43810;50.860;19.226;2023-05-29T02:30:07;5.25;;;2.90;;
58017;SDS011;43810;50.860;19.226;2023-05-29T02:32:33;5.28;;;3.05;;
58017;SDS011;43810;50.860;19.226;2023-05-29T02:34:59;3.30;;;2.65;;
58017;SDS011;43810;50.860;19.226;2023-05-29T02:37:25;5.57;;;2.95;;
58017;SDS011;43810;50.860;19.226;2023-05-29T02:39:51;5.70;;;2.90;;
58017;SDS011;43810;50.860;19.226;2023-05-29T02:42:17;7.22;;;4.00;;
58017;SDS011;43810;50.860;19.226;2023-05-29T02:44:43;6.05;;;3.53;;
58017;SDS011;43810;50.860;19.226;2023-05-29T02:47:09;5.45;;;3.22;;
58017;SDS011;43810;50.860;19.226;2023-05-29T02:49:35;7.25;;;3.67;;
58017;SDS011;43810;50.860;19.226;2023-05-29T02:52:00;5.22;;;3.25;;
58017;SDS011;43810;50.860;19.226;2023-05-29T02:54:26;5.43;;;3.28;;
58017;SDS011;43810;50.860;19.226;2023-05-29T02:56:52;8.27;;;3.50;;
58017;SDS011;43810;50.860;19.226;2023-05-29T02:59:18;4.88;;;3.72;;
58017;SDS011;43810;50.860;19.226;2023-05-29T03:01:44;7.93;;;3.63;;
58017;SDS011;43810;50.860;19.226;2023-05-29T03:04:11;5.95;;;3.20;;
58017;SDS011;43810;50.860;19.226;2023-05-29T03:06:37;7.55;;;3.42;;
58017;SDS011;43810;50.860;19.226;2023-05-29T03:09:04;5.38;;;3.28;;
58017;SDS011;43810;50.860;19.226;2023-05-29T03:11:33;7.90;;;3.38;;
58017;SDS011;43810;50.860;19.226;2023-05-29T03:14:01;7.20;;;3.30;;
58017;SDS011;43810;50.860;19.226;2023-05-29T03:16:27;6.47;;;4.15;;
58017;SDS011;43810;50.860;19.226;2023-05-29T03:18:55;10.38;;;3.78;;
58017;SDS011;43810;50.860;19.226;2023-05-29T03:21:20;7.18;;;3.70;;
58017;SDS011;43810;50.860;19.226;2023-05-29T03:23:47;7.57;;;3.63;;
58017;SDS011;43810;50.860;19.226;2023-05-29T03:26:12;7.40;;;3.92;;
58017;SDS011;43810;50.860;19.226;2023-05-29T03:28:39;9.68;;;3.95;;
58017;SDS011;43810;50.860;19.226;2023-05-29T03:31:05;7.00;;;3.92;;
58017;SDS011;43810;50.860;19.226;2023-05-29T03:33:31;8.90;;;3.78;;
58017;SDS011;43810;50.860;19.226;2023-05-29T03:35:56;8.40;;;4.38;;
58017;SDS011;43810;50.860;19.226;2023-05-29T03:38:23;10.63;;;4.57;;
58017;SDS011;43810;50.860;19.226;2023-05-29T03:40:49;7.00;;;4.05;;
58017;SDS011;43810;50.860;19.226;2023-05-29T03:43:15;6.18;;;4.40;;
58017;SDS011;43810;50.860;19.226;2023-05-29T03:45:41;8.57;;;5.03;;
58017;SDS011;43810;50.860;19.226;2023-05-29T03:48:07;11.75;;;5.22;;
58017;SDS011;43810;50.860;19.226;2023-05-29T03:50:33;12.27;;;4.80;;
58017;SDS011;43810;50.860;19.226;2023-05-29T03:52:59;10.30;;;3.60;;
58017;SDS011;43810;50.860;19.226;2023-05-29T03:55:25;10.05;;;4.30;;
58017;SDS011;43810;50.860;19.226;2023-05-29T03:57:53;8.60;;;4.30;;
58017;SDS011;43810;50.860;19.226;2023-05-29T04:00:19;9.98;;;4.03;;
58017;SDS011;43810;50.860;19.226;2023-05-29T04:02:45;11.93;;;5.72;;
58017;SDS011;43810;50.860;19.226;2023-05-29T04:05:11;9.07;;;4.35;;
58017;SDS011;43810;50.860;19.226;2023-05-29T04:07:38;9.93;;;4.82;;
58017;SDS011;43810;50.860;19.226;2023-05-29T04:10:04;12.02;;;5.07;;
58017;SDS011;43810;50.860;19.226;2023-05-29T04:12:32;9.93;;;6.95;;
58017;SDS011;43810;50.860;19.226;2023-05-29T04:14:58;28.00;;;7.43;;
58017;SDS011;43810;50.860;19.226;2023-05-29T04:17:25;15.88;;;6.53;;
58017;SDS011;43810;50.860;19.226;2023-05-29T04:19:51;10.30;;;4.95;;
58017;SDS011;43810;50.860;19.226;2023-05-29T04:22:17;8.52;;;5.40;;
58017;SDS011;43810;50.860;19.226;2023-05-29T04:24:43;8.23;;;4.85;;
58017;SDS011;43810;50.860;19.226;2023-05-29T04:27:09;11.65;;;4.97;;
58017;SDS011;43810;50.860;19.226;2023-05-29T04:29:44;12.73;;;4.57;;
58017;SDS011;43810;50.860;19.226;2023-05-29T04:32:10;13.52;;;5.50;;
58017;SDS011;43810;50.860;19.226;2023-05-29T04:34:39;9.73;;;5.20;;
58017;SDS011;43810;50.860;19.226;2023-05-29T04:37:05;15.18;;;4.95;;
58017;SDS011;43810;50.860;19.226;2023-05-29T04:39:31;11.02;;;4.50;;
58017;SDS011;43810;50.860;19.226;2023-05-29T04:41:58;8.57;;;4.43;;
58017;SDS011;43810;50.860;19.226;2023-05-29T04:44:26;9.63;;;4.65;;
58017;SDS011;43810;50.860;19.226;2023-05-29T04:46:52;13.48;;;5.63;;
58017;SDS011;43810;50.860;19.226;2023-05-29T04:49:18;12.25;;;4.50;;
58017;SDS011;43810;50.860;19.226;2023-05-29T04:51:46;10.27;;;4.75;;
58017;SDS011;43810;50.860;19.226;2023-05-29T04:54:11;10.93;;;4.78;;
58017;SDS011;43810;50.860;19.226;2023-05-29T04:56:38;7.68;;;4.20;;
58017;SDS011;43810;50.860;19.226;2023-05-29T04:59:05;12.80;;;6.18;;
58017;SDS011;43810;50.860;19.226;2023-05-29T05:01:32;11.63;;;7.15;;
58017;SDS011;43810;50.860;19.226;2023-05-29T05:04:01;13.50;;;9.43;;
58017;SDS011;43810;50.860;19.226;2023-05-29T05:06:27;13.38;;;8.73;;
58017;SDS011;43810;50.860;19.226;2023-05-29T05:08:54;14.10;;;8.68;;
58017;SDS011;43810;50.860;19.226;2023-05-29T05:11:23;16.48;;;8.23;;
58017;SDS011;43810;50.860;19.226;2023-05-29T05:13:49;13.77;;;6.78;;
58017;SDS011;43810;50.860;19.226;2023-05-29T05:16:15;7.45;;;5.10;;
58017;SDS011;43810;50.860;19.226;2023-05-29T05:18:41;6.80;;;4.82;;
58017;SDS011;43810;50.860;19.226;2023-05-29T05:21:09;8.13;;;4.45;;
58017;SDS011;43810;50.860;19.226;2023-05-29T05:23:35;8.57;;;4.10;;
58017;SDS011;43810;50.860;19.226;2023-05-29T05:26:02;7.32;;;4.05;;
58017;SDS011;43810;50.860;19.226;2023-05-29T05:28:28;6.93;;;3.78;;
58017;SDS011;43810;50.860;19.226;2023-05-29T05:30:54;6.85;;;4.07;;
58017;SDS011;43810;50.860;19.226;2023-05-29T05:33:19;8.57;;;4.20;;
58017;SDS011;43810;50.860;19.226;2023-05-29T05:35:45;6.03;;;3.30;;
58017;SDS011;43810;50.860;19.226;2023-05-29T05:38:11;6.68;;;3.80;;
58017;SDS011;43810;50.860;19.226;2023-05-29T05:40:38;6.40;;;3.90;;
58017;SDS011;43810;50.860;19.226;2023-05-29T05:43:03;8.57;;;3.92;;
58017;SDS011;43810;50.860;19.226;2023-05-29T05:45:29;8.05;;;3.70;;
58017;SDS011;43810;50.860;19.226;2023-05-29T05:47:56;6.75;;;4.03;;
58017;SDS011;43810;50.860;19.226;2023-05-29T05:50:22;5.47;;;3.42;;
58017;SDS011;43810;50.860;19.226;2023-05-29T05:52:49;11.63;;;3.97;;
58017;SDS011;43810;50.860;19.226;2023-05-29T05:55:15;5.93;;;3.60;;
58017;SDS011;43810;50.860;19.226;2023-05-29T05:57:41;23.58;;;5.57;;
58017;SDS011;43810;50.860;19.226;2023-05-29T06:00:07;8.70;;;3.40;;
58017;SDS011;43810;50.860;19.226;2023-05-29T06:02:37;8.50;;;3.10;;
58017;SDS011;43810;50.860;19.226;2023-05-29T06:05:03;4.82;;;3.20;;
58017;SDS011;43810;50.860;19.226;2023-05-29T06:07:32;6.20;;;3.10;;
58017;SDS011;43810;50.860;19.226;2023-05-29T06:09:58;8.32;;;3.60;;
58017;SDS011;43810;50.860;19.226;2023-05-29T06:12:24;4.57;;;3.65;;
58017;SDS011;43810;50.860;19.226;2023-05-29T06:14:50;9.02;;;3.38;;
58017;SDS011;43810;50.860;19.226;2023-05-29T06:17:15;10.65;;;3.45;;
58017;SDS011;43810;50.860;19.226;2023-05-29T06:19:41;8.55;;;3.42;;
58017;SDS011;43810;50.860;19.226;2023-05-29T06:22:07;6.32;;;3.67;;
58017;SDS011;43810;50.860;19.226;2023-05-29T06:24:33;4.93;;;2.67;;
58017;SDS011;43810;50.860;19.226;2023-05-29T06:26:59;7.18;;;3.15;;
58017;SDS011;43810;50.860;19.226;2023-05-29T06:29:26;4.57;;;3.40;;
58017;SDS011;43810;50.860;19.226;2023-05-29T06:31:52;5.25;;;3.08;;
58017;SDS011;43810;50.860;19.226;2023-05-29T06:34:18;6.40;;;3.05;;
58017;SDS011;43810;50.860;19.226;2023-05-29T06:36:44;7.47;;;3.50;;
58017;SDS011;43810;50.860;19.226;2023-05-29T06:39:10;4.60;;;3.38;;
58017;SDS011;43810;50.860;19.226;2023-05-29T06:41:36;15.38;;;3.53;;
58017;SDS011;43810;50.860;19.226;2023-05-29T06:44:02;5.75;;;3.33;;
58017;SDS011;43810;50.860;19.226;2023-05-29T06:46:28;10.15;;;3.65;;
58017;SDS011;43810;50.860;19.226;2023-05-29T06:48:54;7.50;;;3.05;;
58017;SDS011;43810;50.860;19.226;2023-05-29T06:51:20;7.68;;;2.95;;
58017;SDS011;43810;50.860;19.226;2023-05-29T06:53:45;7.32;;;3.20;;
58017;SDS011;43810;50.860;19.226;2023-05-29T06:56:11;5.50;;;2.85;;
58017;SDS011;43810;50.860;19.226;2023-05-29T06:58:37;7.45;;;2.38;;
58017;SDS011;43810;50.860;19.226;2023-05-29T07:01:03;14.65;;;3.53;;
58017;SDS011;43810;50.860;19.226;2023-05-29T07:03:29;7.18;;;2.67;;
58017;SDS011;43810;50.860;19.226;2023-05-29T07:05:55;8.50;;;3.05;;
58017;SDS011;43810;50.860;19.226;2023-05-29T07:08:22;6.97;;;2.40;;
58017;SDS011;43810;50.860;19.226;2023-05-29T07:10:48;6.78;;;3.03;;
58017;SDS011;43810;50.860;19.226;2023-05-29T07:13:15;5.68;;;2.50;;
58017;SDS011;43810;50.860;19.226;2023-05-29T07:15:42;6.07;;;2.35;;
58017;SDS011;43810;50.860;19.226;2023-05-29T07:18:08;10.30;;;2.38;;
58017;SDS011;43810;50.860;19.226;2023-05-29T07:20:33;6.28;;;2.75;;
58017;SDS011;43810;50.860;19.226;2023-05-29T07:22:59;10.25;;;2.90;;
58017;SDS011;43810;50.860;19.226;2023-05-29T07:25:25;5.97;;;2.50;;
58017;SDS011;43810;50.860;19.226;2023-05-29T07:27:51;11.40;;;2.65;;
58017;SDS011;43810;50.860;19.226;2023-05-29T07:30:17;7.40;;;2.50;;
58017;SDS011;43810;50.860;19.226;2023-05-29T07:32:44;8.43;;;2.42;;
58017;SDS011;43810;50.860;19.226;2023-05-29T07:35:10;9.73;;;2.53;;
58017;SDS011;43810;50.860;19.226;2023-05-29T07:37:37;6.63;;;2.25;;
58017;SDS011;43810;50.860;19.226;2023-05-29T07:40:03;5.88;;;2.15;;
58017;SDS011;43810;50.860;19.226;2023-05-29T07:42:32;5.55;;;1.92;;
58017;SDS011;43810;50.860;19.226;2023-05-29T07:44:58;4.78;;;2.58;;
58017;SDS011;43810;50.860;19.226;2023-05-29T07:47:25;3.63;;;2.03;;
58017;SDS011;43810;50.860;19.226;2023-05-29T07:49:51;13.55;;;2.92;;
58017;SDS011;43810;50.860;19.226;2023-05-29T07:52:17;4.38;;;1.85;;
58017;SDS011;43810;50.860;19.226;2023-05-29T07:54:44;4.55;;;2.00;;
58017;SDS011;43810;50.860;19.226;2023-05-29T07:57:10;2.67;;;2.17;;
58017;SDS011;43810;50.860;19.226;2023-05-29T07:59:36;3.53;;;2.38;;
58017;SDS011;43810;50.860;19.226;2023-05-29T08:02:03;5.05;;;2.50;;
58017;SDS011;43810;50.860;19.226;2023-05-29T08:04:29;4.15;;;1.80;;
58017;SDS011;43810;50.860;19.226;2023-05-29T08:06:56;9.20;;;2.83;;
58017;SDS011;43810;50.860;19.226;2023-05-29T08:09:22;2.83;;;1.50;;
58017;SDS011;43810;50.860;19.226;2023-05-29T08:11:48;5.25;;;1.92;;
58017;SDS011;43810;50.860;19.226;2023-05-29T08:14:14;4.60;;;1.80;;
58017;SDS011;43810;50.860;19.226;2023-05-29T08:16:41;3.72;;;1.65;;
58017;SDS011;43810;50.860;19.226;2023-05-29T08:19:07;8.77;;;2.05;;
58017;SDS011;43810;50.860;19.226;2023-05-29T08:21:33;3.08;;;1.75;;
58017;SDS011;43810;50.860;19.226;2023-05-29T08:23:59;5.43;;;2.05;;
58017;SDS011;43810;50.860;19.226;2023-05-29T08:26:26;4.43;;;1.90;;
58017;SDS011;43810;50.860;19.226;2023-05-29T08:28:51;4.28;;;2.17;;
58017;SDS011;43810;50.860;19.226;2023-05-29T08:31:18;3.60;;;1.70;;
58017;SDS011;43810;50.860;19.226;2023-05-29T08:33:44;2.50;;;1.60;;
58017;SDS011;43810;50.860;19.226;2023-05-29T08:36:10;4.10;;;1.90;;
58017;SDS011;43810;50.860;19.226;2023-05-29T08:38:36;3.40;;;1.70;;
58017;SDS011;43810;50.860;19.226;2023-05-29T08:41:02;8.15;;;1.80;;
58017;SDS011;43810;50.860;19.226;2023-05-29T08:43:30;3.83;;;2.13;;
58017;SDS011;43810;50.860;19.226;2023-05-29T08:46:01;5.20;;;1.70;;
58017;SDS011;43810;50.860;19.226;2023-05-29T08:48:28;6.63;;;2.05;;
58017;SDS011;43810;50.860;19.226;2023-05-29T08:50:56;4.78;;;1.63;;
58017;SDS011;43810;50.860;19.226;2023-05-29T08:53:24;4.90;;;1.77;;
58017;SDS011;43810;50.860;19.226;2023-05-29T08:55:51;2.65;;;1.67;;
58017;SDS011;43810;50.860;19.226;2023-05-29T08:58:18;5.82;;;1.63;;
58017;SDS011;43810;50.860;19.226;2023-05-29T09:00:49;3.80;;;1.92;;
58017;SDS011;43810;50.860;19.226;2023-05-29T09:03:18;3.75;;;1.67;;
58017;SDS011;43810;50.860;19.226;2023-05-29T09:05:46;5.55;;;1.70;;
58017;SDS011;43810;50.860;19.226;2023-05-29T09:08:11;2.60;;;1.50;;
58017;SDS011;43810;50.860;19.226;2023-05-29T09:10:40;4.82;;;1.45;;
58017;SDS011;43810;50.860;19.226;2023-05-29T09:13:06;1.85;;;1.48;;
58017;SDS011;43810;50.860;19.226;2023-05-29T09:15:34;4.05;;;1.40;;
58017;SDS011;43810;50.860;19.226;2023-05-29T09:18:00;3.53;;;1.42;;
58017;SDS011;43810;50.860;19.226;2023-05-29T09:20:26;3.70;;;1.52;;
58017;SDS011;43810;50.860;19.226;2023-05-29T09:22:56;2.28;;;1.40;;
58017;SDS011;43810;50.860;19.226;2023-05-29T09:25:27;4.30;;;1.75;;
58017;SDS011;43810;50.860;19.226;2023-05-29T09:33:00;2.67;;;1.60;;
58017;SDS011;43810;50.860;19.226;2023-05-29T09:38:02;4.40;;;1.42;;
58017;SDS011;43810;50.860;19.226;2023-05-29T09:40:32;3.63;;;1.90;;
58017;SDS011;43810;50.860;19.226;2023-05-29T09:43:03;5.15;;;1.70;;
58017;SDS011;43810;50.860;19.226;2023-05-29T09:45:30;3.78;;;1.60;;
58017;SDS011;43810;50.860;19.226;2023-05-29T09:47:56;3.28;;;1.67;;
58017;SDS011;43810;50.860;19.226;2023-05-29T09:50:26;4.25;;;1.77;;
58017;SDS011;43810;50.860;19.226;2023-05-29T09:52:54;3.05;;;1.48;;
58017;SDS011;43810;50.860;19.226;2023-05-29T09:55:25;5.38;;;1.60;;
58017;SDS011;43810;50.860;19.226;2023-05-29T09:57:54;3.03;;;1.58;;
58017;SDS011;43810;50.860;19.226;2023-05-29T10:00:20;5.28;;;1.67;;
58017;SDS011;43810;50.860;19.226;2023-05-29T10:02:49;3.10;;;1.42;;
58017;SDS011;43810;50.860;19.226;2023-05-29T10:05:16;4.07;;;1.63;;
58017;SDS011;43810;50.860;19.226;2023-05-29T10:07:43;9.40;;;1.95;;
58017;SDS011;43810;50.860;19.226;2023-05-29T10:10:15;4.10;;;1.60;;
58017;SDS011;43810;50.860;19.226;2023-05-29T10:12:48;1.90;;;1.60;;
58017;SDS011;43810;50.860;19.226;2023-05-29T10:15:15;3.05;;;1.83;;
58017;SDS011;43810;50.860;19.226;2023-05-29T10:17:49;2.70;;;1.85;;
58017;SDS011;43810;50.860;19.226;2023-05-29T10:20:19;3.40;;;1.60;;
58017;SDS011;43810;50.860;19.226;2023-05-29T10:22:50;5.32;;;1.63;;
58017;SDS011;43810;50.860;19.226;2023-05-29T10:25:18;5.25;;;1.63;;
58017;SDS011;43810;50.860;19.226;2023-05-29T10:27:45;2.90;;;1.20;;
58017;SDS011;43810;50.860;19.226;2023-05-29T10:30:18;2.90;;;1.60;;
58017;SDS011;43810;50.860;19.226;2023-05-29T10:33:09;2.88;;;1.50;;
58017;SDS011;43810;50.860;19.226;2023-05-29T10:35:49;2.67;;;1.60;;
58017;SDS011;43810;50.860;19.226;2023-05-29T10:38:18;4.35;;;1.35;;
58017;SDS011;43810;50.860;19.226;2023-05-29T10:40:45;2.30;;;1.58;;
58017;SDS011;43810;50.860;19.226;2023-05-29T10:45:59;4.97;;;1.67;;
58017;SDS011;43810;50.860;19.226;2023-05-29T10:50:54;3.20;;;1.33;;
58017;SDS011;43810;50.860;19.226;2023-05-29T10:53:30;2.67;;;1.30;;
58017;SDS011;43810;50.860;19.226;2023-05-29T10:55:58;5.90;;;1.90;;
58017;SDS011;43810;50.860;19.226;2023-05-29T10:58:26;10.93;;;2.05;;
58017;SDS011;43810;50.860;19.226;2023-05-29T11:00:54;6.00;;;1.98;;
58017;SDS011;43810;50.860;19.226;2023-05-29T11:03:22;7.55;;;2.05;;
58017;SDS011;43810;50.860;19.226;2023-05-29T11:06:02;5.72;;;1.75;;
58017;SDS011;43810;50.860;19.226;2023-05-29T11:08:43;4.85;;;1.40;;
58017;SDS011;43810;50.860;19.226;2023-05-29T11:11:28;1.85;;;1.40;;
58017;SDS011;43810;50.860;19.226;2023-05-29T11:13:55;2.42;;;1.40;;
58017;SDS011;43810;50.860;19.226;2023-05-29T11:18:54;2.67;;;1.75;;
58017;SDS011;43810;50.860;19.226;2023-05-29T11:23:51;7.60;;;1.88;;
58017;SDS011;43810;50.860;19.226;2023-05-29T11:26:22;5.25;;;1.80;;
58017;SDS011;43810;50.860;19.226;2023-05-29T11:28:53;3.00;;;1.30;;
58017;SDS011;43810;50.860;19.226;2023-05-29T11:31:22;3.28;;;1.50;;
58017;SDS011;43810;50.860;19.226;2023-05-29T11:33:50;4.90;;;1.67;;
58017;SDS011;43810;50.860;19.226;2023-05-29T11:36:20;4.85;;;1.95;;
58017;SDS011;43810;50.860;19.226;2023-05-29T11:38:47;5.28;;;1.60;;
58017;SDS011;43810;50.860;19.226;2023-05-29T11:41:13;4.50;;;1.50;;
58017;SDS011;43810;50.860;19.226;2023-05-29T11:43:39;4.65;;;1.55;;
58017;SDS011;43810;50.860;19.226;2023-05-29T11:46:18;3.47;;;1.80;;
58017;SDS011;43810;50.860;19.226;2023-05-29T11:48:45;6.68;;;2.05;;
58017;SDS011;43810;50.860;19.226;2023-05-29T11:51:12;4.20;;;1.58;;
58017;SDS011;43810;50.860;19.226;2023-05-29T11:53:43;5.50;;;1.67;;
58017;SDS011;43810;50.860;19.226;2023-05-29T11:56:09;3.55;;;1.40;;
58017;SDS011;43810;50.860;19.226;2023-05-29T11:58:36;2.28;;;1.48;;
58017;SDS011;43810;50.860;19.226;2023-05-29T12:01:04;3.65;;;1.60;;
58017;SDS011;43810;50.860;19.226;2023-05-29T12:03:36;3.00;;;1.50;;
58017;SDS011;43810;50.860;19.226;2023-05-29T12:06:07;15.40;;;2.50;;
58017;SDS011;43810;50.860;19.226;2023-05-29T12:08:37;3.72;;;1.60;;
58017;SDS011;43810;50.860;19.226;2023-05-29T12:11:04;3.45;;;1.33;;
58017;SDS011;43810;50.860;19.226;2023-05-29T12:13:30;8.25;;;1.65;;
58017;SDS011;43810;50.860;19.226;2023-05-29T12:15:57;6.00;;;2.20;;
58017;SDS011;43810;50.860;19.226;2023-05-29T12:18:25;3.35;;;1.83;;
58017;SDS011;43810;50.860;19.226;2023-05-29T12:20:58;4.35;;;1.80;;
58017;SDS011;43810;50.860;19.226;2023-05-29T12:23:28;3.38;;;1.45;;
58017;SDS011;43810;50.860;19.226;2023-05-29T12:25:55;4.28;;;1.73;;
58017;SDS011;43810;50.860;19.226;2023-05-29T12:28:22;3.03;;;1.77;;
58017;SDS011;43810;50.860;19.226;2023-05-29T12:30:48;3.13;;;1.52;;
58017;SDS011;43810;50.860;19.226;2023-05-29T12:33:28;2.65;;;1.70;;
58017;SDS011;43810;50.860;19.226;2023-05-29T12:36:00;2.50;;;1.33;;
58017;SDS011;43810;50.860;19.226;2023-05-29T12:38:27;2.77;;;1.17;;
58017;SDS011;43810;50.860;19.226;2023-05-29T12:40:53;5.88;;;1.50;;
58017;SDS011;43810;50.860;19.226;2023-05-29T12:43:19;3.63;;;2.05;;
58017;SDS011;43810;50.860;19.226;2023-05-29T12:45:45;4.57;;;1.80;;
58017;SDS011;43810;50.860;19.226;2023-05-29T12:48:12;5.35;;;1.90;;
58017;SDS011;43810;50.860;19.226;2023-05-29T12:50:38;5.57;;;1.73;;
58017;SDS011;43810;50.860;19.226;2023-05-29T12:55:32;3.65;;;1.77;;
58017;SDS011;43810;50.860;19.226;2023-05-29T12:58:07;3.80;;;1.60;;
58017;SDS011;43810;50.860;19.226;2023-05-29T13:00:35;2.80;;;1.70;;
58017;SDS011;43810;50.860;19.226;2023-05-29T13:03:06;6.18;;;1.58;;
58017;SDS011;43810;50.860;19.226;2023-05-29T13:05:33;3.35;;;2.00;;
58017;SDS011;43810;50.860;19.226;2023-05-29T13:07:59;2.92;;;1.35;;
58017;SDS011;43810;50.860;19.226;2023-05-29T13:10:26;5.03;;;1.60;;
58017;SDS011;43810;50.860;19.226;2023-05-29T13:12:53;3.58;;;1.83;;
58017;SDS011;43810;50.860;19.226;2023-05-29T13:15:21;2.95;;;1.70;;
58017;SDS011;43810;50.860;19.226;2023-05-29T13:17:48;3.60;;;1.45;;
58017;SDS011;43810;50.860;19.226;2023-05-29T13:20:14;6.03;;;1.50;;
58017;SDS011;43810;50.860;19.226;2023-05-29T13:22:41;2.45;;;1.67;;
58017;SDS011;43810;50.860;19.226;2023-05-29T13:25:09;2.88;;;1.40;;
58017;SDS011;43810;50.860;19.226;2023-05-29T13:27:36;3.92;;;1.55;;
58017;SDS011;43810;50.860;19.226;2023-05-29T13:30:04;12.00;;;2.05;;
58017;SDS011;43810;50.860;19.226;2023-05-29T13:32:31;5.28;;;1.90;;
58017;SDS011;43810;50.860;19.226;2023-05-29T13:34:57;9.27;;;1.63;;
58017;SDS011;43810;50.860;19.226;2023-05-29T13:37:23;3.40;;;1.52;;
58017;SDS011;43810;50.860;19.226;2023-05-29T13:39:49;3.40;;;1.60;;
58017;SDS011;43810;50.860;19.226;2023-05-29T13:42:17;3.05;;;1.50;;
58017;SDS011;43810;50.860;19.226;2023-05-29T13:44:43;6.68;;;1.67;;
58017;SDS011;43810;50.860;19.226;2023-05-29T13:47:09;1.90;;;1.70;;
58017;SDS011;43810;50.860;19.226;2023-05-29T13:49:35;4.63;;;1.50;;
58017;SDS011;43810;50.860;19.226;2023-05-29T13:52:01;5.13;;;1.50;;
58017;SDS011;43810;50.860;19.226;2023-05-29T13:54:28;2.80;;;1.20;;
58017;SDS011;43810;50.860;19.226;2023-05-29T13:56:56;5.97;;;1.70;;
58017;SDS011;43810;50.860;19.226;2023-05-29T13:59:23;11.98;;;2.38;;
58017;SDS011;43810;50.860;19.226;2023-05-29T14:01:50;5.30;;;1.52;;
58017;SDS011;43810;50.860;19.226;2023-05-29T14:04:16;2.97;;;1.42;;
58017;SDS011;43810;50.860;19.226;2023-05-29T14:06:42;2.03;;;1.50;;
58017;SDS011;43810;50.860;19.226;2023-05-29T14:09:08;5.22;;;1.90;;
58017;SDS011;43810;50.860;19.226;2023-05-29T14:11:38;5.35;;;1.65;;
58017;SDS011;43810;50.860;19.226;2023-05-29T14:14:04;17.73;;;2.00;;
58017;SDS011;43810;50.860;19.226;2023-05-29T14:16:31;5.90;;;1.38;;
58017;SDS011;43810;50.860;19.226;2023-05-29T14:18:57;9.10;;;2.00;;
58017;SDS011;43810;50.860;19.226;2023-05-29T14:21:23;4.90;;;2.08;;
58017;SDS011;43810;50.860;19.226;2023-05-29T14:23:50;5.32;;;1.52;;
58017;SDS011;43810;50.860;19.226;2023-05-29T14:26:15;4.53;;;1.80;;
58017;SDS011;43810;50.860;19.226;2023-05-29T14:28:41;8.50;;;2.00;;
58017;SDS011;43810;50.860;19.226;2023-05-29T14:31:07;5.03;;;1.50;;
58017;SDS011;43810;50.860;19.226;2023-05-29T14:33:33;4.78;;;2.00;;
58017;SDS011;43810;50.860;19.226;2023-05-29T14:35:59;4.60;;;1.60;;
58017;SDS011;43810;50.860;19.226;2023-05-29T14:38:26;6.13;;;1.77;;
58017;SDS011;43810;50.860;19.226;2023-05-29T14:40:52;3.47;;;1.73;;
58017;SDS011;43810;50.860;19.226;2023-05-29T14:43:18;6.82;;;1.63;;
58017;SDS011;43810;50.860;19.226;2023-05-29T14:45:44;1.52;;;1.42;;
58017;SDS011;43810;50.860;19.226;2023-05-29T14:48:10;4.03;;;1.38;;
58017;SDS011;43810;50.860;19.226;2023-05-29T14:50:36;11.50;;;2.38;;
58017;SDS011;43810;50.860;19.226;2023-05-29T14:53:02;3.22;;;1.58;;
58017;SDS011;43810;50.860;19.226;2023-05-29T14:55:29;6.75;;;1.80;;
58017;SDS011;43810;50.860;19.226;2023-05-29T14:57:57;6.57;;;1.60;;
58017;SDS011;43810;50.860;19.226;2023-05-29T15:00:23;13.35;;;1.98;;